createdAt,value
2022-11-01T00:00:06.316Z,20.40
2022-11-01T00:03:00.977Z,19.70
2022-11-01T00:05:29.243Z,22.60
2022-11-01T00:07:57.488Z,23.90
2022-11-01T00:10:25.686Z,21.50
2022-11-01T00:12:54.615Z,21.80
2022-11-01T00:15:22.923Z,24.00
2022-11-01T00:17:51.088Z,20.60
2022-11-01T00:20:19.257Z,18.60
2022-11-01T00:22:47.528Z,20.80
2022-11-01T00:25:15.868Z,22.40
2022-11-01T00:27:44.086Z,21.40
2022-11-01T00:30:12.599Z,19.30
2022-11-01T00:32:41.431Z,18.30
2022-11-01T00:35:09.768Z,19.80
2022-11-01T00:37:38.101Z,18.30
2022-11-01T00:40:06.926Z,17.80
2022-11-01T00:42:35.144Z,20.20
2022-11-01T00:45:05.264Z,18.20
2022-11-01T00:47:33.479Z,18.80
2022-11-01T00:50:01.766Z,20.10
2022-11-01T00:52:30.097Z,15.70
2022-11-01T00:54:58.251Z,23.40
2022-11-01T00:57:26.446Z,20.00
2022-11-01T00:59:54.799Z,19.60
2022-11-01T01:02:23.280Z,21.60
2022-11-01T01:04:51.630Z,20.50
2022-11-01T01:07:19.820Z,24.60
2022-11-01T01:09:48.057Z,22.70
2022-11-01T01:12:16.215Z,20.60
2022-11-01T01:14:44.447Z,16.00
2022-11-01T01:17:12.680Z,21.20
2022-11-01T01:19:41.545Z,18.50
2022-11-01T01:22:09.951Z,17.90
2022-11-01T01:24:45.563Z,17.30
2022-11-01T01:27:15.534Z,16.90
2022-11-01T01:29:47.344Z,17.30
2022-11-01T01:32:20.760Z,17.90
2022-11-01T01:34:49.927Z,19.50
2022-11-01T01:37:20.339Z,19.60
2022-11-01T01:39:48.621Z,17.70
2022-11-01T01:42:26.064Z,15.70
2022-11-01T01:44:57.307Z,15.90
2022-11-01T01:47:29.945Z,16.50
2022-11-01T01:50:04.387Z,15.00
2022-11-01T01:52:40.341Z,14.20
2022-11-01T01:55:11.347Z,14.40
2022-11-01T01:57:40.822Z,18.10
2022-11-01T02:00:09.842Z,18.90
2022-11-01T02:02:42.424Z,16.20
2022-11-01T02:05:22.389Z,14.70
2022-11-01T02:07:50.620Z,17.80
2022-11-01T02:10:20.721Z,19.00
2022-11-01T02:12:49.864Z,16.70
2022-11-01T02:15:23.682Z,20.80
2022-11-01T02:18:12.945Z,18.30
2022-11-01T02:21:02.150Z,16.30
2022-11-01T02:23:58.181Z,15.60
2022-11-01T02:26:33.487Z,14.90
2022-11-01T02:29:10.924Z,14.80
2022-11-01T02:32:06.475Z,19.00
2022-11-01T02:34:48.154Z,18.70
2022-11-01T02:37:48.688Z,18.00
2022-11-01T02:40:46.013Z,20.10
2022-11-01T02:43:20.999Z,20.40
2022-11-01T02:48:22.022Z,17.50
2022-11-01T02:50:56.103Z,22.50
2022-11-01T02:53:24.492Z,16.60
2022-11-01T02:55:53.899Z,17.60
2022-11-01T02:58:29.042Z,19.00
2022-11-01T03:00:57.438Z,17.70
2022-11-01T03:03:32.604Z,16.50
2022-11-01T03:06:00.923Z,20.00
2022-11-01T03:08:55.478Z,21.40
2022-11-01T03:11:36.649Z,17.20
2022-11-01T03:14:23.527Z,13.90
2022-11-01T03:17:12.802Z,17.50
2022-11-01T03:19:59.847Z,20.50
2022-11-01T03:23:01.493Z,16.30
2022-11-01T03:25:41.858Z,18.90
2022-11-01T03:28:33.980Z,17.70
2022-11-01T03:31:11.436Z,16.90
2022-11-01T03:33:52.161Z,15.30
2022-11-01T03:36:24.558Z,14.00
2022-11-01T03:38:59.957Z,15.10
2022-11-01T03:41:33.180Z,17.30
2022-11-01T03:44:03.180Z,14.10
2022-11-01T03:46:31.739Z,17.90
2022-11-01T03:49:00.134Z,16.70
2022-11-01T03:51:28.437Z,21.60
2022-11-01T03:53:56.624Z,19.30
2022-11-01T03:56:24.885Z,21.50
2022-11-01T03:58:53.254Z,21.30
2022-11-01T04:01:21.680Z,20.40
2022-11-01T04:03:49.985Z,24.80
2022-11-01T04:06:18.221Z,26.00
2022-11-01T04:08:46.450Z,25.40
2022-11-01T04:11:14.610Z,23.50
2022-11-01T04:13:43.601Z,23.50
2022-11-01T04:16:30.441Z,23.40
2022-11-01T04:19:17.059Z,25.70
2022-11-01T04:21:45.546Z,26.70
2022-11-01T04:24:21.258Z,20.20
2022-11-01T04:26:49.771Z,22.50
2022-11-01T04:29:18.042Z,25.60
2022-11-01T04:31:46.228Z,20.30
2022-11-01T04:34:34.419Z,22.20
2022-11-01T04:37:02.649Z,25.80
2022-11-01T04:39:30.820Z,24.80
2022-11-01T04:41:59.017Z,26.30
2022-11-01T04:44:27.354Z,22.10
2022-11-01T04:46:55.607Z,24.20
2022-11-01T04:49:23.851Z,25.90
2022-11-01T04:51:52.395Z,28.30
2022-11-01T04:54:20.614Z,25.80
2022-11-01T04:56:48.856Z,23.20
2022-11-01T04:59:17.093Z,26.20
2022-11-01T05:01:45.484Z,26.00
2022-11-01T05:04:13.958Z,28.60
2022-11-01T05:06:42.298Z,27.80
2022-11-01T05:09:10.522Z,25.90
2022-11-01T05:11:38.795Z,24.80
2022-11-01T05:14:07.659Z,24.70
2022-11-01T05:16:35.874Z,27.30
2022-11-01T05:19:04.135Z,32.80
2022-11-01T05:21:32.431Z,25.20
2022-11-01T05:24:00.797Z,26.20
2022-11-01T05:26:29.027Z,27.80
2022-11-01T05:28:57.298Z,28.00
2022-11-01T05:31:25.653Z,26.00
2022-11-01T05:33:53.873Z,25.30
2022-11-01T05:36:22.193Z,25.90
2022-11-01T05:38:50.538Z,25.30
2022-11-01T05:41:18.909Z,27.50
2022-11-01T05:43:47.230Z,30.50
2022-11-01T05:46:15.535Z,26.90
2022-11-01T05:48:44.133Z,27.10
2022-11-01T05:51:12.383Z,28.20
2022-11-01T05:53:40.641Z,27.40
2022-11-01T05:56:08.924Z,25.10
2022-11-01T05:58:37.293Z,28.90
2022-11-01T06:01:07.531Z,28.70
2022-11-01T06:03:36.961Z,26.00
2022-11-01T06:06:05.501Z,25.10
2022-11-01T06:08:33.769Z,26.40
2022-11-01T06:11:03.891Z,30.50
2022-11-01T06:13:33.341Z,31.90
2022-11-01T06:16:03.665Z,29.80
2022-11-01T06:18:32.231Z,26.60
2022-11-01T06:21:00.577Z,25.10
2022-11-01T06:23:28.782Z,34.90
2022-11-01T06:26:02.173Z,28.30
2022-11-01T06:28:31.005Z,34.40
2022-11-01T06:31:07.061Z,33.20
2022-11-01T06:33:35.529Z,35.10
2022-11-01T06:36:04.162Z,32.90
2022-11-01T06:38:32.358Z,32.70
2022-11-01T06:41:00.598Z,31.80
2022-11-01T06:43:28.874Z,34.30
2022-11-01T06:45:59.763Z,32.00
2022-11-01T06:48:29.213Z,35.70
2022-11-01T06:50:57.525Z,29.60
2022-11-01T06:53:25.879Z,31.80
2022-11-01T06:55:54.138Z,30.70
2022-11-01T06:58:22.312Z,32.30
2022-11-01T07:00:50.628Z,32.80
2022-11-01T07:03:18.941Z,27.80
2022-11-01T07:05:49.575Z,30.00
2022-11-01T07:08:17.856Z,30.60
2022-11-01T07:10:46.163Z,31.10
2022-11-01T07:13:14.480Z,33.90
2022-11-01T07:15:42.784Z,31.10
2022-11-01T07:18:11.134Z,31.00
2022-11-01T07:20:42.861Z,33.90
2022-11-01T07:23:16.444Z,33.10
2022-11-01T07:25:45.360Z,32.60
2022-11-01T07:28:13.730Z,31.50
2022-11-01T07:30:42.237Z,34.90
2022-11-01T07:33:10.420Z,35.20
2022-11-01T07:35:38.710Z,30.90
2022-11-01T07:38:09.876Z,36.70
2022-11-01T07:40:41.737Z,36.10
2022-11-01T07:43:09.979Z,35.90
2022-11-01T07:45:38.309Z,33.90
2022-11-01T07:48:10.691Z,31.80
2022-11-01T07:50:40.675Z,35.70
2022-11-01T07:53:14.688Z,35.00
2022-11-01T07:55:43.453Z,33.70
2022-11-01T07:58:13.152Z,33.20
2022-11-01T08:00:43.094Z,36.50
2022-11-01T08:03:14.645Z,38.70
2022-11-01T08:05:44.158Z,39.30
2022-11-01T08:08:13.411Z,39.20
2022-11-01T08:10:42.598Z,41.70
2022-11-01T08:13:21.458Z,41.30
2022-11-01T08:15:52.278Z,43.00
2022-11-01T08:18:22.697Z,42.40
2022-11-01T08:20:51.947Z,46.70
2022-11-01T08:23:21.001Z,41.00
2022-11-01T08:25:49.225Z,42.50
2022-11-01T08:28:19.720Z,45.00
2022-11-01T08:30:49.716Z,43.60
2022-11-01T08:33:18.183Z,45.10
2022-11-01T08:35:50.501Z,45.70
2022-11-01T08:38:19.619Z,44.90
2022-11-01T08:40:48.440Z,48.60
2022-11-01T08:43:17.728Z,53.90
2022-11-01T08:45:46.416Z,59.90
2022-11-01T08:48:14.607Z,57.30
2022-11-01T08:50:43.181Z,57.30
2022-11-01T08:53:14.240Z,58.60
2022-11-01T08:55:42.525Z,64.10
2022-11-01T08:58:11.177Z,62.00
2022-11-01T09:00:39.492Z,59.30
2022-11-01T09:03:07.849Z,59.00
2022-11-01T09:05:36.116Z,66.30
2022-11-01T09:08:05.122Z,64.20
2022-11-01T09:13:34.630Z,64.60
2022-11-01T09:16:07.100Z,67.10
2022-11-01T09:18:35.814Z,68.50
2022-11-01T09:21:04.620Z,66.60
2022-11-01T09:23:34.191Z,70.30
2022-11-01T09:26:05.147Z,66.10
2022-11-01T09:28:34.744Z,64.60
2022-11-01T09:31:19.411Z,66.30
2022-11-01T09:33:49.046Z,59.70
2022-11-01T09:36:17.344Z,63.90
2022-11-01T09:38:47.640Z,63.80
2022-11-01T09:41:39.173Z,64.40
2022-11-01T09:44:14.851Z,60.80
2022-11-01T09:46:52.134Z,63.00
2022-11-01T09:49:28.935Z,56.80
2022-11-01T09:51:58.163Z,63.60
2022-11-01T09:54:28.852Z,62.00
2022-11-01T09:57:05.888Z,65.60
2022-11-01T09:59:37.690Z,62.40
2022-11-01T10:02:41.453Z,66.80
2022-11-01T10:05:35.038Z,60.40
2022-11-01T10:08:31.454Z,58.80
2022-11-01T10:11:21.278Z,58.50
2022-11-01T10:14:28.226Z,59.90
2022-11-01T10:17:16.924Z,55.10
2022-11-01T10:19:50.031Z,54.10
2022-11-01T10:22:28.739Z,56.30
2022-11-01T10:25:16.138Z,60.40
2022-11-01T10:28:03.255Z,55.30
2022-11-01T10:30:38.568Z,55.10
2022-11-01T10:33:26.625Z,58.20
2022-11-01T10:36:00.520Z,55.30
2022-11-01T10:39:10.809Z,54.90
2022-11-01T10:41:37.265Z,54.40
2022-11-01T10:44:15.044Z,51.50
2022-11-01T10:46:47.641Z,53.00
2022-11-01T10:49:40.441Z,56.60
2022-11-01T10:52:23.492Z,53.70
2022-11-01T10:54:53.410Z,53.70
2022-11-01T10:57:31.005Z,55.30
2022-11-01T11:00:05.431Z,49.80
2022-11-01T11:02:40.353Z,51.60
2022-11-01T11:05:13.755Z,50.30
2022-11-01T11:07:42.694Z,52.20
2022-11-01T11:10:29.080Z,57.40
2022-11-01T11:13:03.128Z,60.70
2022-11-01T11:15:53.492Z,53.70
2022-11-01T11:18:36.760Z,54.20
2022-11-01T11:21:11.996Z,56.10
2022-11-01T11:23:46.362Z,60.80
2022-11-01T11:26:18.265Z,60.00
2022-11-01T11:28:53.564Z,52.20
2022-11-01T11:31:31.669Z,58.00
2022-11-01T11:34:24.974Z,61.40
2022-11-01T11:36:55.132Z,60.10
2022-11-01T11:39:29.356Z,55.30
2022-11-01T11:42:15.144Z,57.20
2022-11-01T11:44:50.606Z,58.80
2022-11-01T11:47:28.489Z,66.00
2022-11-01T11:49:58.791Z,61.10
2022-11-01T11:52:38.012Z,54.80
2022-11-01T11:55:26.484Z,60.60
2022-11-01T11:57:55.596Z,58.70
2022-11-01T12:00:29.563Z,56.10
2022-11-01T12:03:02.383Z,59.20
2022-11-01T12:05:30.952Z,61.80
2022-11-01T12:07:59.314Z,59.10
2022-11-01T12:10:39.692Z,67.20
2022-11-01T12:13:28.631Z,62.50
2022-11-01T12:19:00.233Z,62.80
2022-11-01T12:21:40.180Z,61.30
2022-11-01T12:24:41.717Z,63.30
2022-11-01T12:27:15.753Z,64.70
2022-11-01T12:29:52.282Z,64.10
2022-11-01T12:32:40.843Z,57.80
2022-11-01T12:35:22.178Z,53.40
2022-11-01T12:38:02.876Z,54.40
2022-11-01T12:40:37.964Z,54.40
2022-11-01T12:43:48.779Z,54.00
2022-11-01T12:46:51.172Z,56.40
2022-11-01T12:49:19.405Z,48.00
2022-11-01T12:51:52.672Z,55.00
2022-11-01T12:54:26.056Z,47.10
2022-11-01T12:56:56.578Z,56.10
2022-11-01T12:59:44.453Z,53.40
2022-11-01T13:02:50.473Z,55.10
2022-11-01T13:05:25.238Z,54.70
2022-11-01T13:08:07.235Z,52.20
2022-11-01T13:10:44.204Z,50.30
2022-11-01T13:13:18.555Z,49.70
2022-11-01T13:16:05.258Z,52.70
2022-11-01T13:19:00.925Z,49.30
2022-11-01T13:21:36.190Z,47.10
2022-11-01T13:24:13.599Z,47.00
2022-11-01T13:26:46.876Z,45.80
2022-11-01T13:29:45.451Z,46.20
2022-11-01T13:32:28.770Z,43.30
2022-11-01T13:34:59.661Z,46.00
2022-11-01T13:37:45.400Z,51.70
2022-11-01T13:40:28.134Z,45.50
2022-11-01T13:43:04.177Z,46.80
2022-11-01T13:45:51.712Z,46.10
2022-11-01T13:48:42.043Z,49.60
2022-11-01T13:51:45.460Z,48.30
2022-11-01T13:54:32.641Z,46.90
2022-11-01T13:57:11.319Z,46.30
2022-11-01T13:59:45.395Z,45.60
2022-11-01T14:02:22.696Z,45.80
2022-11-01T14:05:03.081Z,42.00
2022-11-01T14:08:20.843Z,42.20
2022-11-01T14:10:50.849Z,42.30
2022-11-01T14:13:31.636Z,40.90
2022-11-01T14:16:19.632Z,40.80
2022-11-01T14:19:03.309Z,42.60
2022-11-01T14:21:41.081Z,41.70
2022-11-01T14:24:53.292Z,36.70
2022-11-01T14:27:48.856Z,39.60
2022-11-01T14:30:23.719Z,40.40
2022-11-01T14:32:57.432Z,38.70
2022-11-01T14:35:35.105Z,40.10
2022-11-01T14:38:13.366Z,40.90
2022-11-01T14:40:41.753Z,39.70
2022-11-01T14:43:44.207Z,40.60
2022-11-01T14:46:16.242Z,34.20
2022-11-01T14:48:48.526Z,38.80
2022-11-01T14:51:26.007Z,39.80
2022-11-01T14:54:21.933Z,39.00
2022-11-01T14:56:52.980Z,38.80
2022-11-01T14:59:24.097Z,40.40
2022-11-01T15:02:02.206Z,40.30
2022-11-01T15:04:46.105Z,41.40
2022-11-01T15:07:31.407Z,40.30
2022-11-01T15:10:14.603Z,50.80
2022-11-01T15:12:47.477Z,47.90
2022-11-01T15:15:21.764Z,43.40
2022-11-01T15:18:00.630Z,49.80
2022-11-01T15:20:40.845Z,46.00
2022-11-01T15:23:19.766Z,52.20
2022-11-01T15:25:52.851Z,48.50
2022-11-01T15:28:46.403Z,49.20
2022-11-01T15:31:14.849Z,52.10
2022-11-01T15:33:55.550Z,50.10
2022-11-01T15:36:31.607Z,51.40
2022-11-01T15:39:02.802Z,50.50
2022-11-01T15:41:32.323Z,52.10
2022-11-01T15:44:06.420Z,47.90
2022-11-01T15:46:41.733Z,53.70
2022-11-01T15:49:17.852Z,49.00
2022-11-01T15:52:16.219Z,46.40
2022-11-01T15:54:51.300Z,51.40
2022-11-01T16:00:22.589Z,50.60
2022-11-01T16:03:03.813Z,52.40
2022-11-01T16:05:41.754Z,50.70
2022-11-01T16:08:29.596Z,49.30
2022-11-01T16:10:58.609Z,44.60
2022-11-01T16:13:27.520Z,43.70
2022-11-01T16:16:13.216Z,44.20
2022-11-01T16:18:45.200Z,46.00
2022-11-01T16:21:19.333Z,46.60
2022-11-01T16:23:51.087Z,45.80
2022-11-01T16:26:19.474Z,65.80
2022-11-01T16:28:50.663Z,59.50
2022-11-01T16:31:23.762Z,60.10
2022-11-01T16:33:56.478Z,56.90
2022-11-01T16:36:43.902Z,49.90
2022-11-01T16:39:27.739Z,37.40
2022-11-01T16:41:56.300Z,36.70
2022-11-01T16:44:25.433Z,37.90
2022-11-01T16:46:55.050Z,37.60
2022-11-01T16:49:25.994Z,34.90
2022-11-01T16:51:56.830Z,36.80
2022-11-01T16:54:25.742Z,70.20
2022-11-01T16:56:56.883Z,83.20
2022-11-01T16:59:34.172Z,70.10
2022-11-01T17:02:24.552Z,71.80
2022-11-01T17:04:58.588Z,58.10
2022-11-01T17:07:27.725Z,55.60
2022-11-01T17:09:56.042Z,49.30
2022-11-01T17:12:24.319Z,46.00
2022-11-01T17:14:53.278Z,36.50
2022-11-01T17:17:24.868Z,35.20
2022-11-01T17:19:59.561Z,34.80
2022-11-01T17:22:33.704Z,37.80
2022-11-01T17:25:04.145Z,37.50
2022-11-01T17:27:32.418Z,34.80
2022-11-01T17:30:00.916Z,38.00
2022-11-01T17:32:29.209Z,35.20
2022-11-01T17:34:57.416Z,44.20
2022-11-01T17:37:27.105Z,42.80
2022-11-01T17:39:55.506Z,32.20
2022-11-01T17:42:23.783Z,43.30
2022-11-01T17:45:14.964Z,36.30
2022-11-01T17:47:43.881Z,37.80
2022-11-01T17:50:15.378Z,43.00
2022-11-01T17:52:43.871Z,40.40
2022-11-01T17:55:12.277Z,46.90
2022-11-01T17:57:41.467Z,50.20
2022-11-01T18:00:10.977Z,41.70
2022-11-01T18:02:43.213Z,41.40
2022-11-01T18:05:11.945Z,44.70
2022-11-01T18:07:47.774Z,38.60
2022-11-01T18:10:21.008Z,36.50
2022-11-01T18:13:00.297Z,35.90
2022-11-01T18:15:42.415Z,35.70
2022-11-01T18:18:20.573Z,34.60
2022-11-01T18:21:29.799Z,36.40
2022-11-01T18:24:03.957Z,34.20
2022-11-01T18:26:32.652Z,35.00
2022-11-01T18:29:23.665Z,33.20
2022-11-01T18:32:14.716Z,37.00
2022-11-01T18:35:05.670Z,32.90
2022-11-01T18:38:12.769Z,36.00
2022-11-01T18:40:43.669Z,34.70
2022-11-01T18:43:11.984Z,38.00
2022-11-01T18:46:04.375Z,32.30
2022-11-01T18:48:29.204Z,36.10
2022-11-01T18:51:05.990Z,35.40
2022-11-01T18:53:34.572Z,37.30
2022-11-01T18:56:21.119Z,35.00
2022-11-01T18:58:52.546Z,34.20
2022-11-01T19:01:31.928Z,38.00
2022-11-01T19:04:36.111Z,34.80
2022-11-01T19:07:35.157Z,39.50
2022-11-01T19:10:19.163Z,36.30
2022-11-01T19:12:55.415Z,38.50
2022-11-01T19:15:34.957Z,40.60
2022-11-01T19:18:15.689Z,39.80
2022-11-01T19:20:51.088Z,43.50
2022-11-01T19:23:33.398Z,33.90
2022-11-01T19:26:03.785Z,37.10
2022-11-01T19:28:40.782Z,46.30
2022-11-01T19:31:26.870Z,40.90
2022-11-01T19:34:00.564Z,38.10
2022-11-01T19:36:40.709Z,43.00
2022-11-01T19:39:24.658Z,37.80
2022-11-01T19:41:55.957Z,43.90
2022-11-01T19:44:26.013Z,38.50
2022-11-01T19:47:06.255Z,34.30
2022-11-01T19:49:42.989Z,37.10
2022-11-01T19:52:11.903Z,34.10
2022-11-01T19:54:43.609Z,33.40
2022-11-01T19:57:34.360Z,35.10
2022-11-01T20:00:11.797Z,37.80
2022-11-01T20:02:40.129Z,44.40
2022-11-01T20:05:33.305Z,43.90
2022-11-01T20:08:21.628Z,33.30
2022-11-01T20:10:49.841Z,35.30
2022-11-01T20:13:18.206Z,34.20
2022-11-01T20:15:47.294Z,31.70
2022-11-01T20:18:16.450Z,41.10
2022-11-01T20:20:46.032Z,41.20
2022-11-01T20:23:30.059Z,42.40
2022-11-01T20:25:58.419Z,62.30
2022-11-01T20:28:27.168Z,63.50
2022-11-01T20:30:56.302Z,67.10
2022-11-01T20:33:25.696Z,52.30
2022-11-01T20:35:54.325Z,48.50
2022-11-01T20:38:23.724Z,39.10
2022-11-01T20:40:54.836Z,43.00
2022-11-01T20:43:24.112Z,33.70
2022-11-01T20:45:52.386Z,35.80
2022-11-01T20:48:20.607Z,29.60
2022-11-01T20:50:48.855Z,31.10
2022-11-01T20:53:17.277Z,44.80
2022-11-01T20:55:45.676Z,39.00
2022-11-01T20:58:14.300Z,50.20
2022-11-01T21:00:43.069Z,45.00
2022-11-01T21:03:16.254Z,48.10
2022-11-01T21:05:46.856Z,41.20
2022-11-01T21:08:22.778Z,42.90
2022-11-01T21:10:57.666Z,50.10
2022-11-01T21:13:27.613Z,54.30
2022-11-01T21:15:58.524Z,42.50
2022-11-01T21:18:38.157Z,46.30
2022-11-01T21:21:15.508Z,46.30
2022-11-01T21:23:44.752Z,45.30
2022-11-01T21:26:20.769Z,47.90
2022-11-01T21:28:58.840Z,40.90
2022-11-01T21:31:37.866Z,42.30
2022-11-01T21:34:11.932Z,38.60
2022-11-01T21:36:46.371Z,36.70
2022-11-01T21:39:24.310Z,43.00
2022-11-01T21:41:57.177Z,50.60
2022-11-01T21:44:35.379Z,50.40
2022-11-01T21:47:06.616Z,79.70
2022-11-01T21:49:36.723Z,52.50
2022-11-01T21:52:07.770Z,72.00
2022-11-01T21:54:38.098Z,66.70
2022-11-01T21:57:09.365Z,65.00
2022-11-01T21:59:37.560Z,69.80
2022-11-01T22:02:07.540Z,71.70
2022-11-01T22:04:36.108Z,64.10
2022-11-01T22:07:07.128Z,58.50
2022-11-01T22:09:36.124Z,64.40
2022-11-01T22:12:05.008Z,54.00
2022-11-01T22:14:33.384Z,52.80
2022-11-01T22:17:01.607Z,54.90
2022-11-01T22:19:29.892Z,48.00
2022-11-01T22:21:58.188Z,48.20
2022-11-01T22:24:26.474Z,47.60
2022-11-01T22:26:54.721Z,42.50
2022-11-01T22:29:22.887Z,43.60
2022-11-01T22:31:51.076Z,45.30
2022-11-01T22:34:19.360Z,46.40
2022-11-01T22:36:48.598Z,33.10
2022-11-01T22:39:21.011Z,35.90
2022-11-01T22:41:49.621Z,33.70
2022-11-01T22:44:24.949Z,34.30
2022-11-01T22:46:59.082Z,37.40
2022-11-01T22:49:41.987Z,34.60
2022-11-01T22:52:29.779Z,36.20
2022-11-01T22:55:25.604Z,36.50
2022-11-01T22:57:59.875Z,34.60
2022-11-01T23:00:36.374Z,41.60
2022-11-01T23:03:29.037Z,40.20
2022-11-01T23:06:00.148Z,36.80
2022-11-01T23:08:37.291Z,33.70
2022-11-01T23:11:05.607Z,33.70
2022-11-01T23:13:55.813Z,37.60
2022-11-01T23:16:35.154Z,33.60
2022-11-01T23:19:08.673Z,38.10
2022-11-01T23:21:36.957Z,37.60
2022-11-01T23:24:07.812Z,38.70
2022-11-01T23:26:36.044Z,37.30
2022-11-01T23:29:04.317Z,38.40
2022-11-01T23:31:32.579Z,35.70
2022-11-01T23:34:00.873Z,39.70
2022-11-01T23:36:33.208Z,46.90
2022-11-01T23:39:04.813Z,39.30
2022-11-01T23:41:43.331Z,43.30
2022-11-01T23:44:51.856Z,40.30
2022-11-01T23:47:25.435Z,42.20
2022-11-01T23:50:03.011Z,42.20
2022-11-01T23:52:52.621Z,42.80
2022-11-01T23:55:32.799Z,44.60
2022-11-01T23:58:07.444Z,41.20
